Latest Coastal Weather Observations for Koolan Island / Koolan Central

IDW60701

Issued at 1:33 am WST Thursday 3 September 2026 (issued every 10 minutes, with the page automatically refreshed every 10 minutes)

About coastal observations | Map of coastal stations | Coastal observations for WA | Marine services | Other Formats
Station Details ID: 503621 Name: KOOLAN ISLAND (KOOLAN CENTRAL AIRPORT) Lat: -16.12 Lon: 123.74 Height: 163.2 m
Data from the previous 72 hours. | See also: Recent months for locations in Western Australia
Date/Time
WST
Wind Sea
Height
m
Swell Vis
km
Cloud Weather Temp
°C
Press
MSL
hPa
Rain since
9am
mm
Dir  Spd
kts
Gust
kts
Height
m
Period
s
Dir
03/01:30am WSW 9 11 - - - - - Mostly clear - 24.4 - 0.0
03/01:00am WSW 8 11 - - - - - Cloudy - 24.5 - 0.0
03/12:30am WSW 11 13 - - - - - Cloudy - 24.4 - 0.0
03/12:00am SW 10 11 - - - - - Cloudy - 24.5 - 0.0
 
Date/Time
WST
Wind Sea
Height
m
Swell Vis
km
Cloud Weather Temp
°C
Press
MSL
hPa
Rain since
9am
mm
Dir  Spd
kts
Gust
kts
Height
m
Period
s
Dir
02/11:30pm SW 11 14 - - - - - Partly cloudy - 24.6 - 0.0
02/11:00pm SW 11 13 - - - - - Cloudy - 24.6 - 0.0
02/10:30pm SW 10 12 - - - - - Partly cloudy - 24.4 - 0.0
02/10:00pm WSW 9 11 - - - - - Partly cloudy - 24.6 - 0.0
02/09:30pm WSW 8 10 - - - - - Partly cloudy - 24.6 - 0.0
02/09:00pm WSW 9 11 - - - - - Partly cloudy - 24.8 - 0.0
02/08:30pm WSW 11 14 - - - - - - - 24.9 - 0.0
02/08:00pm WSW 11 14 - - - - - - - 25.0 - 0.0
02/07:30pm WSW 12 14 - - - - - - - 25.1 - 0.0
02/07:00pm WSW 11 13 - - - - - Mostly clear - 25.4 - 0.0
02/06:30pm WSW 12 14 - - - - - - - 25.9 - 0.0
02/06:00pm WSW 11 13 - - - - - - - 25.7 - 0.0
02/05:30pm WSW 10 11 - - - - - - - 26.0 - 0.0
02/05:00pm SW 8 10 - - - - - - - 26.3 - 0.0
02/04:30pm WNW 7 11 - - - - - - - 29.2 - 0.0
02/04:00pm W 5 8 - - - - - - - 28.6 - 0.0
02/03:30pm NW 8 11 - - - - - - - 28.9 - 0.0
02/03:00pm NNW 7 10 - - - - - - - 28.3 - 0.0
02/02:30pm NNW 6 8 - - - - - - - 27.7 - 0.0
02/02:00pm NNW 7 9 - - - - - - - 27.1 - 0.0
02/01:30pm NNW 7 9 - - - - - - - 26.8 - 0.0
02/01:00pm NNW 7 9 - - - - - - - 27.9 - 0.0
02/12:30pm NNW 5 7 - - - - - - - 28.5 - 0.0
02/12:00pm N 5 7 - - - - - - - 28.3 - 0.0
02/11:30am NE 4 6 - - - - - - - 28.3 - 0.0
02/11:00am NE 5 8 - - - - - - - 28.7 - 0.0
02/10:30am NE 5 8 - - - - - - - 27.4 - 0.0
02/10:00am NNE 4 7 - - - - - - - 27.5 - 0.0
02/09:30am NE 3 5 - - - - - - - 26.9 - 0.0
02/09:00am NE 5 7 - - - - - - - 26.0 - 0.0
02/08:30am NNE 3 6 - - - - - - - 26.2 - 0.0
02/08:00am NNE 3 4 - - - - - - - 25.5 - 0.0
02/07:30am NNE 2 3 - - - - - - - 25.1 - 0.0
02/07:00am ESE 1 2 - - - - - - - 25.0 - 0.0
02/06:30am SE 1 3 - - - - - - - 23.5 - 0.0
02/06:00am SSW 2 5 - - - - - - - 23.0 - 0.0
02/05:30am SSW 4 4 - - - - - - - 22.8 - 0.0
02/05:00am S 4 5 - - - - - - - 22.8 - 0.0
02/04:30am S 3 4 - - - - - - - 23.1 - 0.0
02/04:00am SW 1 3 - - - - - - - 23.2 - 0.0
02/03:30am N 1 2 - - - - - - - 23.4 - 0.0
02/03:00am NNE 2 3 - - - - - - - 23.4 - 0.0
02/02:30am E 1 3 - - - - - Partly cloudy - 23.4 - 0.0
02/02:00am N 1 2 - - - - - Mostly clear - 23.6 - 0.0
02/01:30am NNW 2 3 - - - - - Partly cloudy - 23.6 - 0.0
02/01:00am NNE 2 3 - - - - - Mostly clear - 23.6 - 0.0
02/12:30am S 2 4 - - - - - - - 23.7 - 0.0
02/12:00am SW 7 8 - - - - - - - 23.9 - 0.0
 
Date/Time
WST
Wind Sea
Height
m
Swell Vis
km
Cloud Weather Temp
°C
Press
MSL
hPa
Rain since
9am
mm
Dir  Spd
kts
Gust
kts
Height
m
Period
s
Dir
01/11:30pm SW 9 10 - - - - - - - 24.0 - 0.0
01/11:00pm WSW 9 10 - - - - - - - 24.1 - 0.0
01/10:30pm WSW 6 8 - - - - - - - 24.2 - 0.0
01/10:00pm SW 11 12 - - - - - - - 24.3 - 0.0
01/09:30pm SW 11 13 - - - - - - - 24.4 - 0.0
01/09:00pm SW 11 13 - - - - - - - 24.6 - 0.0
01/08:30pm SW 10 12 - - - - - - - 24.8 - 0.0
01/08:00pm WSW 11 13 - - - - - - - 24.9 - 0.0
01/07:30pm WSW 11 13 - - - - - - - 24.9 - 0.0
01/07:00pm WSW 12 15 - - - - - - - 24.8 - 0.0
01/06:30pm WSW 14 15 - - - - - - - 25.1 - 0.0
01/06:00pm WSW 12 14 - - - - - - - 25.2 - 0.0
01/05:30pm WSW 11 14 - - - - - - - 25.8 - 0.0
01/05:00pm W 8 12 - - - - - - - 26.5 - 0.0
01/04:30pm NW 10 13 - - - - - - - 26.5 - 0.0
01/04:00pm NNW 11 14 - - - - - - - 26.7 - 0.0
01/03:30pm NNW 9 12 - - - - - - - 27.4 - 0.0
01/03:00pm NNW 10 13 - - - - - - - 27.3 - 0.0
01/02:30pm NNW 9 11 - - - - - - - 27.6 - 0.0
01/02:00pm NNW 8 11 - - - - - - - 27.8 - 0.0
01/01:30pm N 7 11 - - - - - - - 27.6 - 0.0
01/01:00pm NE 8 10 - - - - - - - 27.1 - 0.0
01/12:30pm NNE 9 12 - - - - - - - 27.5 - 0.0
01/12:00pm NE 7 10 - - - - - - - 27.8 - 0.0
01/11:30am NE 7 10 - - - - - - - 27.1 - 0.0
01/11:00am NE 9 12 - - - - - - - 27.7 - 0.0
01/10:30am NE 8 13 - - - - - - - 28.0 - 0.0
01/10:00am NE 7 10 - - - - - - - 28.3 - 0.0
01/09:30am NE 7 11 - - - - - - - 27.8 - 0.0
01/09:00am ENE 4 7 - - - - - - - 28.1 - 0.0
01/08:30am ESE 5 8 - - - - - - - 27.8 - 0.0
01/08:00am SE 5 8 - - - - - - - 26.6 - 0.0
01/07:30am SSE 4 5 - - - - - - - 25.7 - 0.0
01/07:00am SE 5 7 - - - - - - - 25.5 - 0.0
01/06:30am ESE 2 3 - - - - - - - 25.2 - 0.0
01/06:00am ESE 2 3 - - - - - - - 24.6 - 0.0
01/05:30am SSW 3 4 - - - - - - - 24.3 - 0.0
01/05:00am S 3 7 - - - - - - - 24.6 - 0.0
01/04:30am S 7 11 - - - - - - - 25.4 - 0.0
01/04:00am S 4 7 - - - - - - - 24.8 - 0.0
01/03:30am SSW 4 5 - - - - - - - 24.8 - 0.0
01/03:00am S 5 6 - - - - - - - 25.0 - 0.0
01/02:30am S 5 6 - - - - - - - 25.5 - 0.0
01/02:00am S 5 7 - - - - - - - 25.9 - 0.0
01/01:30am S 7 9 - - - - - - - 25.6 - 0.0
01/01:00am SSW 9 12 - - - - - - - 25.6 - 0.0
01/12:30am SSW 10 12 - - - - - - - 25.0 - 0.0
01/12:00am SSW 8 11 - - - - - - - 25.0 - 0.0
 
Date/Time
WST
Wind Sea
Height
m
Swell Vis
km
Cloud Weather Temp
°C
Press
MSL
hPa
Rain since
9am
mm
Dir  Spd
kts
Gust
kts
Height
m
Period
s
Dir
31/11:30pm SW 9 10 - - - - - - - 25.5 - 0.0
31/11:00pm WSW 8 10 - - - - - - - 25.6 - 0.0
31/10:30pm SW 10 11 - - - - - - - 25.5 - 0.0
31/10:00pm SW 9 11 - - - - - - - 25.4 - 0.0
31/09:30pm SW 11 14 - - - - - - - 25.3 - 0.0
31/09:00pm WSW 10 12 - - - - - - - 25.1 - 0.0
31/08:30pm WSW 11 13 - - - - - - - 24.9 - 0.0
31/08:00pm WSW 12 14 - - - - - - - 25.0 - 0.0
31/07:30pm WSW 13 15 - - - - - - - 25.6 - 0.0
31/07:00pm WSW 12 14 - - - - - - - 25.7 - 0.0
31/06:30pm WSW 12 13 - - - - - - - 27.0 - 0.0
31/06:00pm WSW 12 14 - - - - - - - 27.5 - 0.0
31/05:30pm WSW 14 16 - - - - - - - 28.8 - 0.0
31/05:00pm W 14 17 - - - - - - - 29.8 - 0.0
31/04:30pm W 10 13 - - - - - - - 30.3 - 0.0
31/04:00pm W 10 13 - - - - - - - 30.7 - 0.0
31/03:30pm W 8 12 - - - - - - - 31.0 - 0.0
31/03:00pm NW 3 6 - - - - - - - 29.2 - 0.0
31/02:30pm NW 4 7 - - - - - - - 28.9 - 0.0
31/02:00pm NW 5 8 - - - - - - - 29.5 - 0.0
31/01:30pm NNW 5 7 - - - - - - - 29.0 - 0.0
31/01:00pm NNW 5 7 - - - - - - - 28.9 - 0.0
31/12:30pm NNW 4 6 - - - - - - - 29.2 - 0.0
31/12:00pm NNW 4 6 - - - - - - - 28.9 - 0.0
31/11:30am NNW 5 8 - - - - - - - 28.3 - 0.0
31/11:00am NNW 7 9 - - - - - - - 28.4 - 0.0
31/10:30am NNW 6 8 - - - - - - - 28.2 - 0.0
31/10:00am N 6 9 - - - - - - - 27.9 - 0.0
31/09:30am N 5 7 - - - - - - - 28.0 - 0.0
31/09:00am E 3 4 - - - - - - - 29.2 - 0.0
31/08:30am S 5 6 - - - - - - - 28.6 - 0.0
31/08:00am S 7 10 - - - - - - - 27.6 - 0.0
31/07:30am S 8 11 - - - - - - - 26.6 - 0.0
31/07:00am S 9 10 - - - - - - - 26.2 - 0.0
31/06:30am SSE 10 12 - - - - - - - 26.0 - 0.0
31/06:00am S 9 12 - - - - - - - 26.1 - 0.0
31/05:30am S 8 10 - - - - - - - 26.0 - 0.0
31/05:00am S 9 11 - - - - - - - 26.4 - 0.0
31/04:30am S 7 9 - - - - - - - 26.7 - 0.0
31/04:00am S 7 8 - - - - - - - 26.5 - 0.0
31/03:30am S 7 10 - - - - - - - 26.3 - 0.0
31/03:00am S 8 10 - - - - - - - 26.0 - 0.0
31/02:30am S 7 9 - - - - - - - 26.3 - 0.0
31/02:00am S 6 8 - - - - - - - 26.2 - 0.0

Other formats

Comma delimited format used in spreadsheet applications
http://www.bom.gov.au/fwo/IDW60701/IDW60701.99200.axf

JavaScript Object Notation format (JSON) in row-major order
http://www.bom.gov.au/fwo/IDW60701/IDW60701.99200.json

Data quality

Most of these data are generated automatically and are frequently updated. Quality checks on data are not normally performed. It is possible for incorrect values to appear. Refer to information at About Latest Weather Observations and please check the disclaimer before using these data.